createdAt,value
2023-02-08T00:01:24.197Z,7.67
2023-02-08T00:03:52.666Z,7.68
2023-02-08T00:06:21.363Z,7.66
2023-02-08T00:08:49.445Z,7.67
2023-02-08T00:11:17.461Z,7.66
2023-02-08T00:13:46.985Z,7.66
2023-02-08T00:16:15.548Z,7.63
2023-02-08T00:18:43.716Z,7.62
2023-02-08T00:21:13.429Z,7.56
2023-02-08T00:23:42.062Z,7.50
2023-02-08T00:26:10.973Z,7.44
2023-02-08T00:28:39.407Z,7.40
2023-02-08T00:31:10.456Z,7.35
2023-02-08T00:33:38.813Z,7.32
2023-02-08T00:36:09.014Z,7.32
2023-02-08T00:38:37.251Z,7.33
2023-02-08T00:41:06.202Z,7.34
2023-02-08T00:43:34.579Z,7.33
2023-02-08T00:46:02.655Z,7.33
2023-02-08T00:48:33.305Z,7.32
2023-02-08T00:51:03.277Z,7.33
2023-02-08T00:53:31.338Z,7.36
2023-02-08T00:55:59.463Z,7.34
2023-02-08T00:58:27.772Z,7.33
2023-02-08T01:00:56.225Z,7.34
2023-02-08T01:03:25.660Z,7.32
2023-02-08T01:05:56.022Z,7.29
2023-02-08T01:08:24.057Z,7.28
2023-02-08T01:10:52.126Z,7.25
2023-02-08T01:13:20.585Z,7.23
2023-02-08T01:15:49.006Z,7.20
2023-02-08T01:18:17.073Z,7.18
2023-02-08T01:20:45.064Z,7.18
2023-02-08T01:23:14.501Z,7.18
2023-02-08T01:25:42.692Z,7.15
2023-02-08T01:28:10.810Z,7.14
2023-02-08T01:30:39.413Z,7.10
2023-02-08T01:33:07.575Z,7.10
2023-02-08T01:35:35.560Z,7.09
2023-02-08T01:38:03.617Z,7.08
2023-02-08T01:40:33.253Z,7.07
2023-02-08T01:43:01.560Z,7.05
2023-02-08T01:45:31.693Z,6.99
2023-02-08T01:48:06.837Z,6.93
2023-02-08T01:50:43.821Z,6.88
2023-02-08T01:53:12.650Z,6.83
2023-02-08T01:55:49.207Z,6.79
2023-02-08T01:58:20.397Z,6.77
2023-02-08T02:00:49.292Z,6.74
2023-02-08T02:03:18.863Z,6.73
2023-02-08T02:05:49.411Z,6.71
2023-02-08T02:08:17.612Z,6.67
2023-02-08T02:10:50.528Z,6.66
2023-02-08T02:13:20.970Z,6.60
2023-02-08T02:15:50.297Z,6.57
2023-02-08T02:18:24.424Z,6.52
2023-02-08T02:21:14.896Z,6.47
2023-02-08T02:24:06.943Z,6.43
2023-02-08T02:27:05.447Z,6.39
2023-02-08T02:30:17.294Z,6.37
2023-02-08T02:33:01.299Z,6.30
2023-02-08T02:35:36.585Z,6.32
2023-02-08T02:38:11.706Z,6.32
2023-02-08T02:40:51.572Z,6.32
2023-02-08T02:43:42.568Z,6.34
2023-02-08T02:46:23.684Z,6.39
2023-02-08T02:49:01.359Z,6.40
2023-02-08T02:51:37.040Z,6.40
2023-02-08T02:54:09.861Z,6.38
2023-02-08T02:56:42.882Z,6.36
2023-02-08T02:59:13.519Z,6.36
2023-02-08T03:01:43.341Z,6.36
2023-02-08T03:04:17.322Z,6.32
2023-02-08T03:07:03.345Z,6.30
2023-02-08T03:09:53.140Z,6.29
2023-02-08T03:12:36.881Z,6.27
2023-02-08T03:15:14.562Z,6.28
2023-02-08T03:17:56.444Z,6.26
2023-02-08T03:20:29.160Z,6.25
2023-02-08T03:23:03.892Z,6.25
2023-02-08T03:25:37.856Z,6.26
2023-02-08T03:28:09.879Z,6.27
2023-02-08T03:30:48.527Z,6.22
2023-02-08T03:33:22.104Z,6.20
2023-02-08T03:35:57.528Z,6.15
2023-02-08T03:38:30.860Z,6.10
2023-02-08T03:41:02.705Z,6.06
2023-02-08T03:43:34.660Z,6.02
2023-02-08T03:46:11.112Z,6.00
2023-02-08T03:48:42.751Z,6.00
2023-02-08T03:51:12.641Z,6.03
2023-02-08T03:53:44.281Z,6.04
2023-02-08T03:56:17.412Z,6.04
2023-02-08T03:58:50.834Z,6.05
2023-02-08T04:01:25.464Z,6.03
2023-02-08T04:03:56.448Z,6.00
2023-02-08T04:06:26.253Z,5.96
2023-02-08T04:08:54.464Z,5.93
2023-02-08T04:11:22.809Z,5.88
2023-02-08T04:13:50.798Z,5.83
2023-02-08T04:16:18.775Z,5.80
2023-02-08T04:18:46.809Z,5.76
2023-02-08T04:21:14.933Z,5.74
2023-02-08T04:23:44.492Z,5.70
2023-02-08T04:26:12.576Z,5.67
2023-02-08T04:28:40.749Z,5.68
2023-02-08T04:31:08.957Z,5.64
2023-02-08T04:33:37.095Z,5.66
2023-02-08T04:36:05.744Z,5.65
2023-02-08T04:38:33.757Z,5.67
2023-02-08T04:41:03.270Z,5.65
2023-02-08T04:43:31.442Z,5.63
2023-02-08T04:45:59.782Z,5.62
2023-02-08T04:48:27.717Z,5.58
2023-02-08T04:50:57.359Z,5.54
2023-02-08T04:53:25.844Z,5.53
2023-02-08T04:55:54.071Z,5.49
2023-02-08T04:58:24.729Z,5.50
2023-02-08T05:00:53.132Z,5.51
2023-02-08T05:03:21.457Z,5.49
2023-02-08T05:05:58.248Z,5.44
2023-02-08T05:08:26.656Z,5.45
2023-02-08T05:10:54.764Z,5.40
2023-02-08T05:13:24.318Z,5.37
2023-02-08T05:15:52.369Z,5.34
2023-02-08T05:18:20.585Z,5.30
2023-02-08T05:20:55.860Z,5.28
2023-02-08T05:23:23.987Z,5.29
2023-02-08T05:25:52.144Z,5.29
2023-02-08T05:28:20.393Z,5.32
2023-02-08T05:30:50.523Z,5.33
2023-02-08T05:33:18.759Z,5.35
2023-02-08T05:35:47.020Z,5.37
2023-02-08T05:38:15.504Z,5.37
2023-02-08T05:40:43.462Z,5.36
2023-02-08T05:43:11.741Z,5.35
2023-02-08T05:45:39.905Z,5.29
2023-02-08T05:48:09.421Z,5.30
2023-02-08T05:50:37.758Z,5.26
2023-02-08T05:53:05.872Z,5.22
2023-02-08T05:55:33.887Z,5.20
2023-02-08T05:58:02.152Z,5.18
2023-02-08T06:00:30.179Z,5.14
2023-02-08T06:02:59.272Z,5.12
2023-02-08T06:05:28.791Z,5.11
2023-02-08T06:07:57.052Z,5.10
2023-02-08T06:10:25.179Z,5.09
2023-02-08T06:12:53.244Z,5.10
2023-02-08T06:15:21.360Z,5.09
2023-02-08T06:17:49.527Z,5.09
2023-02-08T06:20:18.014Z,5.05
2023-02-08T06:22:47.644Z,5.01
2023-02-08T06:25:15.640Z,4.96
2023-02-08T06:27:43.857Z,4.95
2023-02-08T06:30:12.932Z,4.96
2023-02-08T06:32:40.999Z,4.94
2023-02-08T06:35:09.864Z,4.88
2023-02-08T06:37:38.008Z,4.87
2023-02-08T06:40:09.102Z,4.85
2023-02-08T06:42:37.365Z,4.85
2023-02-08T06:45:06.055Z,4.86
2023-02-08T06:47:34.048Z,4.86
2023-02-08T06:50:01.984Z,4.87
2023-02-08T06:52:30.060Z,4.88
2023-02-08T06:54:58.110Z,4.91
2023-02-08T06:57:27.780Z,4.90
2023-02-08T06:59:55.798Z,4.88
2023-02-08T07:02:24.089Z,4.82
2023-02-08T07:04:52.309Z,4.78
2023-02-08T07:07:20.588Z,4.77
2023-02-08T07:09:48.780Z,4.79
2023-02-08T07:12:17.276Z,4.79
2023-02-08T07:14:46.903Z,4.75
2023-02-08T07:17:15.003Z,4.71
2023-02-08T07:19:42.974Z,4.67
2023-02-08T07:22:10.932Z,4.61
2023-02-08T07:24:40.363Z,4.59
2023-02-08T07:27:10.542Z,4.57
2023-02-08T07:29:39.386Z,4.62
2023-02-08T07:32:09.474Z,4.70
2023-02-08T07:34:40.803Z,4.79
2023-02-08T07:37:09.061Z,4.82
2023-02-08T07:39:37.117Z,4.81
2023-02-08T07:42:06.363Z,4.79
2023-02-08T07:44:35.629Z,4.79
2023-02-08T07:47:03.693Z,4.78
2023-02-08T07:49:33.548Z,4.77
2023-02-08T07:52:03.018Z,4.78
2023-02-08T07:54:31.213Z,4.71
2023-02-08T07:57:01.198Z,4.70
2023-02-08T07:59:30.537Z,4.68
2023-02-08T08:01:58.614Z,4.65
2023-02-08T08:04:26.712Z,4.67
2023-02-08T08:06:56.301Z,4.72
2023-02-08T08:09:24.443Z,4.74
2023-02-08T08:11:52.796Z,4.77
2023-02-08T08:14:21.069Z,4.83
2023-02-08T08:16:49.175Z,4.93
2023-02-08T08:19:17.291Z,5.02
2023-02-08T08:21:45.293Z,5.11
2023-02-08T08:24:14.977Z,5.20
2023-02-08T08:26:43.042Z,5.30
2023-02-08T08:29:11.063Z,5.39
2023-02-08T08:31:39.201Z,5.49
2023-02-08T08:34:07.469Z,5.60
2023-02-08T08:36:35.541Z,5.70
2023-02-08T08:39:03.869Z,5.78
2023-02-08T08:41:33.723Z,5.83
2023-02-08T08:44:02.248Z,5.88
2023-02-08T08:46:30.342Z,5.94
2023-02-08T08:48:59.197Z,5.94
2023-02-08T08:51:27.477Z,5.98
2023-02-08T08:53:55.640Z,5.99
2023-02-08T08:56:23.764Z,6.04
2023-02-08T08:58:53.323Z,6.14
2023-02-08T09:01:21.608Z,6.24
2023-02-08T09:03:50.177Z,6.33
2023-02-08T09:06:18.837Z,6.42
2023-02-08T09:08:47.165Z,6.49
2023-02-08T09:11:17.230Z,6.54
2023-02-08T09:13:45.428Z,6.57
2023-02-08T09:16:16.657Z,6.60
2023-02-08T09:18:45.622Z,6.61
2023-02-08T09:21:15.584Z,6.61
2023-02-08T09:23:44.211Z,6.63
2023-02-08T09:26:14.681Z,6.66
2023-02-08T09:28:43.729Z,6.71
2023-02-08T09:31:13.446Z,6.75
2023-02-08T09:33:42.979Z,6.81
2023-02-08T09:36:11.646Z,6.88
2023-02-08T09:38:40.599Z,6.96
2023-02-08T09:41:24.669Z,7.01
2023-02-08T09:44:01.882Z,7.09
2023-02-08T09:46:33.763Z,7.20
2023-02-08T09:49:06.074Z,7.30
2023-02-08T09:51:39.045Z,7.44
2023-02-08T09:54:10.230Z,7.56
2023-02-08T09:56:41.984Z,7.68
2023-02-08T09:59:17.810Z,7.80
2023-02-08T10:01:47.771Z,7.94
2023-02-08T10:04:26.996Z,8.09
2023-02-08T10:06:55.118Z,8.22
2023-02-08T10:09:27.569Z,8.32
2023-02-08T10:12:07.945Z,8.45
2023-02-08T10:14:48.091Z,8.59
2023-02-08T10:17:39.630Z,8.69
2023-02-08T10:20:20.014Z,8.75
2023-02-08T10:22:58.583Z,8.76
2023-02-08T10:25:46.554Z,8.84
2023-02-08T10:28:31.739Z,8.96
2023-02-08T10:31:11.018Z,9.10
2023-02-08T10:33:49.251Z,9.22
2023-02-08T10:36:22.216Z,9.33
2023-02-08T10:38:55.021Z,9.40
2023-02-08T10:41:27.194Z,9.47
2023-02-08T10:44:02.504Z,9.49
2023-02-08T10:46:36.932Z,9.51
2023-02-08T10:49:09.401Z,9.50
2023-02-08T10:51:39.201Z,9.52
2023-02-08T10:54:07.415Z,9.52
2023-02-08T10:56:45.628Z,9.53
2023-02-08T10:59:20.077Z,9.52
2023-02-08T11:01:50.377Z,9.53
2023-02-08T11:04:19.261Z,9.53
2023-02-08T11:06:50.587Z,9.57
2023-02-08T11:09:24.790Z,9.58
2023-02-08T11:11:54.323Z,9.64
2023-02-08T11:14:35.028Z,9.69
2023-02-08T11:17:28.864Z,9.74
2023-02-08T11:19:57.660Z,9.80
2023-02-08T11:22:31.280Z,9.85
2023-02-08T11:25:02.075Z,9.89
2023-02-08T11:27:34.919Z,9.97
2023-02-08T11:30:23.497Z,10.09
2023-02-08T11:33:18.512Z,10.17
2023-02-08T11:35:59.793Z,10.20
2023-02-08T11:38:30.278Z,10.24
2023-02-08T11:41:00.702Z,10.26
2023-02-08T11:43:31.245Z,10.30
2023-02-08T11:46:01.058Z,10.36
2023-02-08T11:48:39.406Z,10.45
2023-02-08T11:51:08.087Z,10.49
2023-02-08T11:53:40.879Z,10.54
2023-02-08T11:56:19.501Z,10.62
2023-02-08T11:59:02.506Z,10.67
2023-02-08T12:01:33.566Z,10.73
2023-02-08T12:04:05.713Z,10.79
2023-02-08T12:07:02.212Z,10.90
2023-02-08T12:10:00.332Z,10.98
2023-02-08T12:12:41.443Z,11.06
2023-02-08T12:15:19.710Z,11.09
2023-02-08T12:18:08.486Z,11.18
2023-02-08T12:20:44.306Z,11.27
2023-02-08T12:23:36.483Z,11.35
2023-02-08T12:26:17.020Z,11.43
2023-02-08T12:28:59.194Z,11.51
2023-02-08T12:31:39.322Z,11.62
2023-02-08T12:34:16.721Z,11.70
2023-02-08T12:37:32.279Z,11.82
2023-02-08T12:40:31.927Z,11.90
2023-02-08T12:43:14.054Z,11.98
2023-02-08T12:45:57.151Z,12.09
2023-02-08T12:48:43.490Z,12.22
2023-02-08T12:51:21.731Z,12.29
2023-02-08T12:53:55.170Z,12.38
2023-02-08T12:56:26.939Z,12.43
2023-02-08T12:59:11.860Z,12.48
2023-02-08T13:01:45.342Z,12.60
2023-02-08T13:04:16.896Z,12.70
2023-02-08T13:06:49.588Z,12.81
2023-02-08T13:09:23.581Z,12.96
2023-02-08T13:11:56.611Z,13.02
2023-02-08T13:14:33.288Z,13.17
2023-02-08T13:17:11.559Z,13.22
2023-02-08T13:19:59.813Z,13.32
2023-02-08T13:22:28.868Z,13.45
2023-02-08T13:25:07.168Z,13.56
2023-02-08T13:27:36.097Z,13.74
2023-02-08T13:30:07.794Z,13.86
2023-02-08T13:32:42.762Z,13.98
2023-02-08T13:35:16.654Z,14.16
2023-02-08T13:37:53.153Z,14.23
2023-02-08T13:40:28.352Z,14.41
2023-02-08T13:43:01.695Z,14.47
2023-02-08T13:45:34.550Z,14.65
2023-02-08T13:48:04.087Z,14.83
2023-02-08T13:50:50.844Z,15.09
2023-02-08T13:53:20.594Z,15.30
2023-02-08T13:55:57.888Z,15.53
2023-02-08T13:58:45.018Z,15.69
2023-02-08T14:01:33.511Z,15.79
2023-02-08T14:04:34.176Z,15.85
2023-02-08T14:07:22.068Z,15.91
2023-02-08T14:10:03.375Z,15.96
2023-02-08T14:12:38.979Z,16.08
2023-02-08T14:15:09.526Z,16.07
2023-02-08T14:17:43.733Z,16.15
2023-02-08T14:20:20.489Z,16.12
2023-02-08T14:22:51.989Z,16.06
2023-02-08T14:25:22.505Z,15.99
2023-02-08T14:27:54.645Z,15.93
2023-02-08T14:30:27.931Z,15.90
2023-02-08T14:33:16.473Z,15.89
2023-02-08T14:35:53.566Z,15.95
2023-02-08T14:38:52.556Z,16.02
2023-02-08T14:41:47.337Z,16.15
2023-02-08T14:44:55.003Z,16.36
2023-02-08T14:48:01.761Z,16.57
2023-02-08T14:50:35.188Z,16.70
2023-02-08T14:53:07.947Z,16.66
2023-02-08T14:55:44.397Z,16.40
2023-02-08T14:58:20.970Z,16.18
2023-02-08T15:00:53.251Z,15.99
2023-02-08T15:03:21.830Z,15.81
2023-02-08T15:06:22.159Z,15.67
2023-02-08T15:08:54.837Z,15.44
2023-02-08T15:11:25.765Z,15.30
2023-02-08T15:13:58.287Z,15.24
2023-02-08T15:16:37.825Z,15.11
2023-02-08T15:19:08.937Z,15.01
2023-02-08T15:21:39.025Z,14.93
2023-02-08T15:24:16.466Z,14.84
2023-02-08T15:26:48.907Z,14.74
2023-02-08T15:29:27.920Z,14.64
2023-02-08T15:31:58.268Z,14.55
2023-02-08T15:34:27.670Z,14.44
2023-02-08T15:36:58.286Z,14.36
2023-02-08T15:39:34.043Z,14.25
2023-02-08T15:42:03.447Z,14.08
2023-02-08T15:44:34.523Z,14.01
2023-02-08T15:47:05.771Z,13.96
2023-02-08T15:49:38.094Z,13.84
2023-02-08T15:52:09.129Z,13.78
2023-02-08T15:54:37.371Z,13.70
2023-02-08T15:57:09.234Z,13.69
2023-02-08T15:59:41.274Z,13.66
2023-02-08T16:02:23.350Z,13.52
2023-02-08T16:04:51.713Z,13.49
2023-02-08T16:07:27.830Z,13.49
2023-02-08T16:09:57.437Z,13.51
2023-02-08T16:12:27.903Z,13.49
2023-02-08T16:14:57.527Z,13.53
2023-02-08T16:17:38.706Z,13.48
2023-02-08T16:20:23.215Z,13.50
2023-02-08T16:23:01.212Z,13.47
2023-02-08T16:25:39.082Z,13.48
2023-02-08T16:28:07.656Z,13.44
2023-02-08T16:30:36.024Z,13.45
2023-02-08T16:33:09.980Z,13.35
2023-02-08T16:35:40.506Z,13.30
2023-02-08T16:38:11.755Z,13.28
2023-02-08T16:40:50.093Z,13.23
2023-02-08T16:43:28.437Z,13.19
2023-02-08T16:46:21.456Z,13.16
2023-02-08T16:48:52.269Z,13.14
2023-02-08T16:51:23.569Z,13.18
2023-02-08T16:53:56.842Z,13.12
2023-02-08T16:56:26.080Z,13.13
2023-02-08T16:58:54.901Z,13.14
2023-02-08T17:01:25.029Z,13.03
2023-02-08T17:03:53.886Z,12.96
2023-02-08T17:06:29.256Z,12.95
2023-02-08T17:09:00.125Z,12.84
2023-02-08T17:11:29.217Z,12.78
2023-02-08T17:13:58.453Z,12.66
2023-02-08T17:16:30.282Z,12.62
2023-02-08T17:18:58.600Z,12.51
2023-02-08T17:21:27.399Z,12.43
2023-02-08T17:23:55.516Z,12.34
2023-02-08T17:26:27.948Z,12.26
2023-02-08T17:28:56.447Z,12.20
2023-02-08T17:31:24.983Z,12.17
2023-02-08T17:33:53.299Z,12.16
2023-02-08T17:36:21.440Z,12.16
2023-02-08T17:38:49.614Z,12.17
2023-02-08T17:41:19.987Z,12.19
2023-02-08T17:43:52.364Z,12.18
2023-02-08T17:46:22.645Z,12.17
2023-02-08T17:48:50.803Z,12.14
2023-02-08T17:51:21.512Z,12.18
2023-02-08T17:53:50.421Z,12.25
2023-02-08T17:56:20.923Z,12.25
2023-02-08T17:58:53.692Z,12.30
2023-02-08T18:01:25.512Z,12.31
2023-02-08T18:03:54.857Z,12.35
2023-02-08T18:06:25.082Z,12.36
2023-02-08T18:08:53.343Z,12.41
2023-02-08T18:11:23.663Z,12.42
2023-02-08T18:13:54.806Z,12.45
2023-02-08T18:16:24.966Z,12.46
2023-02-08T18:18:55.619Z,12.47
2023-02-08T18:21:25.703Z,12.48
2023-02-08T18:23:55.651Z,12.50
2023-02-08T18:26:25.964Z,12.50
2023-02-08T18:28:55.744Z,12.46
2023-02-08T18:31:25.440Z,12.47
2023-02-08T18:33:53.854Z,12.47
2023-02-08T18:36:24.303Z,12.48
2023-02-08T18:38:55.832Z,12.51
2023-02-08T18:41:27.097Z,12.51
2023-02-08T18:43:58.908Z,12.53
2023-02-08T18:46:29.064Z,12.55
2023-02-08T18:48:59.111Z,12.57
2023-02-08T18:51:28.461Z,12.60
2023-02-08T18:53:57.192Z,12.60
2023-02-08T18:56:28.265Z,12.62
2023-02-08T18:59:00.727Z,12.66
2023-02-08T19:01:28.949Z,12.65
2023-02-08T19:03:57.996Z,12.66
2023-02-08T19:06:28.788Z,12.65
2023-02-08T19:08:58.965Z,12.65
2023-02-08T19:11:31.068Z,12.66
2023-02-08T19:14:02.829Z,12.62
2023-02-08T19:16:31.960Z,12.62
2023-02-08T19:19:01.412Z,12.61
2023-02-08T19:21:31.558Z,12.62
2023-02-08T19:24:02.388Z,12.62
2023-02-08T19:26:33.355Z,12.63
2023-02-08T19:29:06.775Z,12.66
2023-02-08T19:31:36.289Z,12.68
2023-02-08T19:34:05.603Z,12.70
2023-02-08T19:36:37.274Z,12.68
2023-02-08T19:39:06.962Z,12.67
2023-02-08T19:41:37.271Z,12.68
2023-02-08T19:44:10.384Z,12.67
2023-02-08T19:46:39.969Z,12.68
2023-02-08T19:49:08.962Z,12.68
2023-02-08T19:51:37.368Z,12.65
2023-02-08T19:54:08.687Z,12.68
2023-02-08T19:56:37.774Z,12.67
2023-02-08T19:59:09.286Z,12.66
2023-02-08T20:01:37.443Z,12.63
2023-02-08T20:04:06.400Z,12.64
2023-02-08T20:06:41.445Z,12.60
2023-02-08T20:09:13.351Z,12.59
2023-02-08T20:11:56.510Z,12.59
2023-02-08T20:14:29.217Z,12.56
2023-02-08T20:16:57.659Z,12.55
2023-02-08T20:19:26.215Z,12.60
2023-02-08T20:21:54.548Z,12.59
2023-02-08T20:24:25.700Z,12.59
2023-02-08T20:27:01.563Z,12.61
2023-02-08T20:29:31.687Z,12.62
2023-02-08T20:31:59.894Z,12.62
2023-02-08T20:34:28.200Z,12.64
2023-02-08T20:37:11.618Z,12.65
2023-02-08T20:39:39.852Z,12.70
2023-02-08T20:42:08.204Z,12.71
2023-02-08T20:44:37.954Z,12.74
2023-02-08T20:47:06.239Z,12.74
2023-02-08T20:49:35.397Z,12.76
2023-02-08T20:52:04.148Z,12.75
2023-02-08T20:54:32.854Z,12.74
2023-02-08T20:57:06.576Z,12.76
2023-02-08T20:59:35.478Z,12.73
2023-02-08T21:02:12.485Z,12.72
2023-02-08T21:04:41.632Z,12.70
2023-02-08T21:07:09.776Z,12.70
2023-02-08T21:09:43.567Z,12.69
2023-02-08T21:12:15.312Z,12.69
2023-02-08T21:14:47.482Z,12.68
2023-02-08T21:17:20.353Z,12.69
2023-02-08T21:20:01.919Z,12.68
2023-02-08T21:22:33.463Z,12.66
2023-02-08T21:25:08.570Z,12.64
2023-02-08T21:27:41.582Z,12.65
2023-02-08T21:30:13.177Z,12.65
2023-02-08T21:32:49.622Z,12.66
2023-02-08T21:35:26.843Z,12.67
2023-02-08T21:38:02.569Z,12.68
2023-02-08T21:40:34.458Z,12.72
2023-02-08T21:43:27.016Z,12.70
2023-02-08T21:46:09.036Z,12.70
2023-02-08T21:49:04.320Z,12.69
2023-02-08T21:51:58.365Z,12.66
2023-02-08T21:54:55.379Z,12.64
2023-02-08T21:57:43.488Z,12.62
2023-02-08T22:00:20.064Z,12.59
2023-02-08T22:02:52.368Z,12.63
2023-02-08T22:05:23.558Z,12.60
2023-02-08T22:07:54.292Z,12.56
2023-02-08T22:10:25.963Z,12.57
2023-02-08T22:12:55.471Z,12.51
2023-02-08T22:15:27.735Z,12.45
2023-02-08T22:17:57.946Z,12.37
2023-02-08T22:20:31.605Z,12.30
2023-02-08T22:22:59.840Z,12.24
2023-02-08T22:25:29.204Z,12.18
2023-02-08T22:27:57.996Z,12.13
2023-02-08T22:30:26.276Z,12.05
2023-02-08T22:32:54.354Z,12.00
2023-02-08T22:35:23.106Z,11.99
2023-02-08T22:37:52.615Z,11.96
2023-02-08T22:40:21.613Z,11.93
2023-02-08T22:42:49.794Z,11.95
2023-02-08T22:45:17.916Z,11.98
2023-02-08T22:47:46.302Z,11.97
2023-02-08T22:50:14.610Z,11.97
2023-02-08T22:52:42.831Z,11.97
2023-02-08T22:55:13.046Z,11.94
2023-02-08T22:57:43.538Z,11.92
2023-02-08T23:00:14.588Z,11.88
2023-02-08T23:02:42.623Z,11.85
2023-02-08T23:05:10.694Z,11.82
2023-02-08T23:07:40.482Z,11.80
2023-02-08T23:10:09.691Z,11.78
2023-02-08T23:12:39.260Z,11.74
2023-02-08T23:15:08.159Z,11.72
2023-02-08T23:17:37.037Z,11.67
2023-02-08T23:20:05.310Z,11.61
2023-02-08T23:22:33.360Z,11.62
2023-02-08T23:25:01.427Z,11.57
2023-02-08T23:27:29.537Z,11.55
2023-02-08T23:30:00.667Z,11.50
2023-02-08T23:32:28.682Z,11.44
2023-02-08T23:34:57.429Z,11.41
2023-02-08T23:37:25.518Z,11.39
2023-02-08T23:39:53.677Z,11.38
2023-02-08T23:42:27.192Z,11.36
2023-02-08T23:44:56.450Z,11.37
2023-02-08T23:47:27.509Z,11.34
2023-02-08T23:49:56.196Z,11.32
2023-02-08T23:52:25.189Z,11.26
2023-02-08T23:54:53.540Z,11.20
2023-02-08T23:57:21.679Z,11.14
2023-02-08T23:59:50.670Z,11.13
